createdAt,value
2023-02-24T00:00:50.760Z,3.00
2023-02-24T00:03:19.772Z,3.03
2023-02-24T00:05:46.086Z,2.98
2023-02-24T00:08:13.845Z,3.05
2023-02-24T00:10:40.115Z,3.08
2023-02-24T00:13:13.302Z,3.04
2023-02-24T00:15:39.564Z,3.03
2023-02-24T00:18:05.951Z,3.03
2023-02-24T00:20:37.813Z,3.01
2023-02-24T00:23:13.448Z,3.00
2023-02-24T00:28:40.757Z,3.06
2023-02-24T00:31:10.583Z,3.07
2023-02-24T00:33:37.054Z,3.11
2023-02-24T00:36:09.778Z,3.05
2023-02-24T00:39:05.191Z,3.05
2023-02-24T00:41:37.914Z,3.09
2023-02-24T00:44:04.940Z,3.08
2023-02-24T00:46:32.599Z,3.04
2023-02-24T00:49:01.208Z,3.04
2023-02-24T00:51:27.480Z,3.08
2023-02-24T00:53:54.786Z,3.08
2023-02-24T00:56:26.237Z,3.08
2023-02-24T00:58:56.022Z,3.10
2023-02-24T01:01:35.025Z,3.12
2023-02-24T01:04:04.857Z,3.14
2023-02-24T01:06:31.564Z,3.12
2023-02-24T01:09:08.026Z,3.11
2023-02-24T01:11:34.963Z,3.10
2023-02-24T01:14:03.740Z,3.09
2023-02-24T01:16:33.578Z,3.14
2023-02-24T01:19:03.181Z,3.11
2023-02-24T01:21:32.585Z,3.12
2023-02-24T01:24:04.920Z,3.14
2023-02-24T01:26:36.826Z,3.20
2023-02-24T01:29:06.598Z,3.27
2023-02-24T01:31:32.997Z,3.30
2023-02-24T01:34:17.052Z,3.25
2023-02-24T01:37:00.919Z,3.20
2023-02-24T01:39:28.704Z,3.23
2023-02-24T01:42:00.538Z,3.23
2023-02-24T01:44:29.835Z,3.23
2023-02-24T01:46:56.098Z,3.22
2023-02-24T01:49:29.561Z,3.19
2023-02-24T01:51:58.765Z,3.16
2023-02-24T01:54:26.427Z,3.15
2023-02-24T01:56:52.698Z,3.16
2023-02-24T01:59:19.212Z,3.14
2023-02-24T02:01:45.487Z,3.14
2023-02-24T02:04:19.176Z,3.17
2023-02-24T02:06:45.398Z,3.18
2023-02-24T02:09:11.596Z,3.13
2023-02-24T02:11:37.820Z,3.12
2023-02-24T02:14:04.045Z,3.14
2023-02-24T02:16:45.900Z,3.18
2023-02-24T02:19:12.046Z,3.13
2023-02-24T02:21:56.843Z,3.14
2023-02-24T02:24:27.286Z,3.12
2023-02-24T02:27:05.736Z,3.09
2023-02-24T02:29:39.352Z,3.05
2023-02-24T02:32:14.999Z,3.09
2023-02-24T02:34:44.000Z,3.07
2023-02-24T02:37:10.731Z,3.08
2023-02-24T02:39:50.725Z,3.10
2023-02-24T02:42:21.639Z,3.03
2023-02-24T02:44:50.218Z,3.03
2023-02-24T02:47:18.781Z,3.03
2023-02-24T02:49:45.440Z,3.07
2023-02-24T02:52:13.000Z,3.10
2023-02-24T02:54:42.247Z,3.08
2023-02-24T02:57:09.437Z,3.07
2023-02-24T02:59:36.306Z,3.06
2023-02-24T03:02:02.893Z,3.07
2023-02-24T03:04:29.106Z,3.08
2023-02-24T03:06:56.490Z,3.07
2023-02-24T03:09:24.149Z,3.07
2023-02-24T03:12:04.068Z,3.10
2023-02-24T03:14:31.489Z,3.08
2023-02-24T03:16:57.705Z,3.04
2023-02-24T03:19:26.159Z,3.10
2023-02-24T03:21:58.630Z,3.07
2023-02-24T03:24:24.827Z,3.08
2023-02-24T03:26:52.247Z,3.11
2023-02-24T03:29:29.422Z,3.11
2023-02-24T03:31:59.781Z,3.12
2023-02-24T03:34:25.968Z,3.10
2023-02-24T03:36:52.174Z,3.09
2023-02-24T03:39:18.376Z,3.13
2023-02-24T03:41:51.024Z,3.14
2023-02-24T03:44:17.234Z,3.09
2023-02-24T03:46:43.435Z,3.06
2023-02-24T03:49:10.101Z,3.09
2023-02-24T03:51:36.307Z,3.12
2023-02-24T03:54:04.032Z,3.09
2023-02-24T03:56:33.217Z,3.12
2023-02-24T03:59:08.323Z,3.11
2023-02-24T04:01:46.683Z,3.10
2023-02-24T04:04:33.225Z,3.11
2023-02-24T04:06:59.433Z,3.12
2023-02-24T04:09:44.362Z,3.13
2023-02-24T04:12:29.227Z,3.12
2023-02-24T04:14:58.269Z,3.13
2023-02-24T04:17:32.053Z,3.11
2023-02-24T04:19:59.488Z,3.11
2023-02-24T04:22:25.697Z,3.10
2023-02-24T04:24:52.885Z,3.10
2023-02-24T04:27:19.074Z,3.08
2023-02-24T04:29:46.858Z,3.10
2023-02-24T04:32:13.443Z,3.07
2023-02-24T04:34:40.165Z,3.08
2023-02-24T04:37:06.387Z,3.10
2023-02-24T04:39:32.611Z,3.05
2023-02-24T04:41:58.939Z,3.01
2023-02-24T04:44:25.138Z,3.05
2023-02-24T04:46:51.338Z,3.05
2023-02-24T04:49:17.991Z,3.04
2023-02-24T04:51:44.440Z,3.04
2023-02-24T04:54:14.459Z,3.00
2023-02-24T04:56:40.672Z,2.97
2023-02-24T04:59:07.151Z,2.99
2023-02-24T05:01:33.353Z,2.98
2023-02-24T05:03:59.603Z,2.96
2023-02-24T05:06:25.842Z,2.95
2023-02-24T05:08:52.059Z,3.04
2023-02-24T05:11:18.340Z,3.04
2023-02-24T05:13:44.694Z,3.03
2023-02-24T05:16:11.507Z,3.04
2023-02-24T05:18:37.760Z,3.00
2023-02-24T05:21:05.479Z,3.00
2023-02-24T05:23:38.628Z,3.00
2023-02-24T05:26:05.304Z,2.96
2023-02-24T05:28:31.519Z,2.95
2023-02-24T05:31:06.751Z,2.96
2023-02-24T05:33:33.060Z,2.97
2023-02-24T05:36:01.996Z,2.96
2023-02-24T05:38:28.214Z,2.93
2023-02-24T05:40:54.419Z,2.92
2023-02-24T05:43:20.642Z,2.96
2023-02-24T05:45:46.864Z,3.00
2023-02-24T05:48:13.326Z,2.97
2023-02-24T05:50:39.549Z,2.96
2023-02-24T05:53:05.759Z,2.91
2023-02-24T05:55:31.977Z,2.98
2023-02-24T05:57:58.188Z,2.97
2023-02-24T06:00:24.392Z,2.99
2023-02-24T06:02:50.646Z,2.98
2023-02-24T06:05:18.466Z,2.96
2023-02-24T06:07:45.694Z,2.92
2023-02-24T06:10:11.918Z,2.91
2023-02-24T06:12:38.126Z,2.93
2023-02-24T06:15:04.416Z,2.92
2023-02-24T06:17:30.615Z,2.96
2023-02-24T06:19:56.850Z,2.95
2023-02-24T06:22:24.041Z,2.96
2023-02-24T06:24:50.319Z,2.98
2023-02-24T06:27:17.266Z,2.98
2023-02-24T06:29:43.749Z,3.02
2023-02-24T06:32:10.031Z,2.99
2023-02-24T06:34:36.764Z,2.99
2023-02-24T06:37:03.171Z,2.99
2023-02-24T06:39:29.982Z,3.00
2023-02-24T06:41:56.201Z,3.05
2023-02-24T06:44:22.405Z,3.07
2023-02-24T06:46:48.612Z,3.07
2023-02-24T06:49:14.820Z,3.08
2023-02-24T06:51:41.030Z,3.05
2023-02-24T06:54:07.226Z,3.16
2023-02-24T06:56:33.464Z,3.10
2023-02-24T06:58:59.667Z,3.04
2023-02-24T07:01:26.761Z,3.11
2023-02-24T07:03:53.490Z,3.07
2023-02-24T07:06:19.707Z,3.09
2023-02-24T07:08:46.615Z,3.00
2023-02-24T07:11:12.820Z,2.98
2023-02-24T07:13:39.030Z,2.91
2023-02-24T07:16:05.256Z,2.91
2023-02-24T07:18:31.455Z,2.87
2023-02-24T07:21:00.322Z,2.84
2023-02-24T07:23:26.520Z,2.84
2023-02-24T07:25:52.719Z,2.80
2023-02-24T07:28:18.926Z,2.72
2023-02-24T07:30:45.205Z,2.77
2023-02-24T07:33:11.472Z,2.73
2023-02-24T07:35:37.857Z,2.67
2023-02-24T07:38:04.733Z,2.65
2023-02-24T07:40:33.681Z,2.63
2023-02-24T07:43:00.592Z,2.58
2023-02-24T07:45:27.146Z,2.49
2023-02-24T07:48:01.293Z,2.50
2023-02-24T07:50:29.940Z,2.51
2023-02-24T07:53:20.152Z,2.52
2023-02-24T07:55:46.475Z,2.44
2023-02-24T07:58:12.754Z,2.41
2023-02-24T08:00:38.995Z,2.36
2023-02-24T08:03:06.488Z,2.39
2023-02-24T08:05:33.793Z,2.35
2023-02-24T08:08:00.019Z,2.35
2023-02-24T08:10:26.256Z,2.34
2023-02-24T08:12:53.280Z,2.31
2023-02-24T08:15:19.734Z,2.33
2023-02-24T08:17:46.395Z,2.25
2023-02-24T08:20:12.837Z,2.29
2023-02-24T08:22:42.631Z,2.20
2023-02-24T08:25:08.962Z,2.24
2023-02-24T08:27:35.442Z,2.24
2023-02-24T08:30:01.682Z,2.23
2023-02-24T08:32:27.960Z,2.20
2023-02-24T08:34:54.234Z,2.24
2023-02-24T08:37:20.500Z,2.11
2023-02-24T08:39:46.720Z,2.18
2023-02-24T08:42:12.924Z,2.17
2023-02-24T08:44:41.117Z,2.13
2023-02-24T08:47:08.412Z,2.09
2023-02-24T08:49:37.896Z,2.08
2023-02-24T08:52:07.263Z,2.10
2023-02-24T08:54:33.514Z,2.11
2023-02-24T08:56:59.990Z,2.07
2023-02-24T08:59:26.515Z,1.98
2023-02-24T09:02:03.631Z,1.95
2023-02-24T09:04:30.705Z,1.92
2023-02-24T09:07:00.248Z,1.88
2023-02-24T09:09:35.969Z,1.84
2023-02-24T09:12:02.179Z,1.79
2023-02-24T09:14:29.534Z,1.83
2023-02-24T09:16:57.087Z,1.82
2023-02-24T09:19:23.318Z,1.86
2023-02-24T09:21:49.526Z,1.78
2023-02-24T09:24:16.973Z,1.69
2023-02-24T09:26:43.422Z,1.73
2023-02-24T09:29:12.790Z,1.73
2023-02-24T09:31:39.162Z,1.79
2023-02-24T09:34:07.167Z,1.75
2023-02-24T09:36:33.379Z,1.76
2023-02-24T09:39:00.138Z,1.68
2023-02-24T09:41:26.412Z,1.77
2023-02-24T09:43:52.632Z,1.87
2023-02-24T09:46:18.928Z,1.89
2023-02-24T09:48:51.581Z,1.89
2023-02-24T09:51:17.912Z,1.92
2023-02-24T09:53:44.143Z,2.00
2023-02-24T09:56:17.799Z,2.01
2023-02-24T09:59:02.870Z,2.04
2023-02-24T10:01:40.488Z,2.03
2023-02-24T10:04:20.175Z,2.14
2023-02-24T10:06:50.804Z,2.14
2023-02-24T10:09:24.004Z,2.20
2023-02-24T10:11:54.128Z,2.23
2023-02-24T10:14:23.107Z,2.23
2023-02-24T10:16:50.448Z,2.33
2023-02-24T10:19:24.439Z,2.37
2023-02-24T10:21:53.897Z,2.41
2023-02-24T10:24:25.200Z,2.42
2023-02-24T10:27:00.753Z,2.39
2023-02-24T10:29:39.654Z,2.42
2023-02-24T10:32:06.086Z,2.42
2023-02-24T10:34:32.433Z,2.52
2023-02-24T10:37:02.287Z,2.60
2023-02-24T10:39:28.498Z,2.59
2023-02-24T10:41:55.766Z,2.66
2023-02-24T10:44:22.743Z,2.74
2023-02-24T10:46:58.547Z,2.80
2023-02-24T10:49:24.803Z,2.83
2023-02-24T10:51:51.612Z,2.85
2023-02-24T10:54:24.506Z,2.84
2023-02-24T10:56:50.721Z,2.86
2023-02-24T10:59:18.241Z,2.91
2023-02-24T11:01:44.520Z,2.96
2023-02-24T11:04:14.659Z,2.95
2023-02-24T11:06:40.895Z,3.01
2023-02-24T11:09:14.630Z,2.95
2023-02-24T11:11:40.875Z,2.99
2023-02-24T11:14:14.242Z,3.05
2023-02-24T11:16:44.080Z,3.14
2023-02-24T11:19:10.297Z,3.17
2023-02-24T11:21:36.507Z,3.21
2023-02-24T11:24:03.987Z,3.30
2023-02-24T11:26:37.291Z,3.34
2023-02-24T11:29:06.773Z,3.40
2023-02-24T11:31:45.373Z,3.36
2023-02-24T11:34:24.083Z,3.40
2023-02-24T11:37:19.645Z,3.29
2023-02-24T11:40:02.392Z,3.46
2023-02-24T11:42:32.837Z,3.52
2023-02-24T11:45:28.463Z,3.67
2023-02-24T11:47:59.323Z,3.58
2023-02-24T11:50:30.470Z,3.62
2023-02-24T11:52:56.872Z,3.59
2023-02-24T11:55:28.205Z,3.56
2023-02-24T11:57:54.534Z,3.43
2023-02-24T12:00:22.231Z,3.48
2023-02-24T12:02:53.216Z,3.47
2023-02-24T12:05:21.354Z,3.43
2023-02-24T12:07:51.198Z,3.40
2023-02-24T12:10:27.560Z,3.35
2023-02-24T12:12:53.736Z,3.37
2023-02-24T12:15:23.023Z,3.45
2023-02-24T12:17:51.826Z,3.52
2023-02-24T12:20:21.535Z,3.50
2023-02-24T12:22:49.958Z,3.49
2023-02-24T12:25:16.183Z,3.51
2023-02-24T12:27:52.310Z,3.55
2023-02-24T12:30:24.640Z,3.61
2023-02-24T12:33:09.379Z,3.73
2023-02-24T12:35:52.862Z,3.77
2023-02-24T12:38:37.833Z,3.73
2023-02-24T12:41:19.197Z,3.72
2023-02-24T12:43:48.345Z,3.76
2023-02-24T12:46:33.355Z,3.73
2023-02-24T12:49:18.223Z,3.73
2023-02-24T12:51:44.398Z,3.81
2023-02-24T12:54:15.115Z,3.81
2023-02-24T12:56:43.953Z,3.76
2023-02-24T12:59:10.442Z,3.73
2023-02-24T13:01:37.847Z,3.82
2023-02-24T13:04:10.848Z,4.08
2023-02-24T13:06:43.063Z,4.15
2023-02-24T13:09:14.981Z,4.15
2023-02-24T13:11:53.232Z,4.19
2023-02-24T13:14:32.659Z,4.20
2023-02-24T13:17:06.220Z,4.19
2023-02-24T13:19:32.431Z,4.32
2023-02-24T13:22:01.601Z,4.27
2023-02-24T13:24:27.835Z,4.21
2023-02-24T13:27:03.886Z,4.37
2023-02-24T13:29:30.116Z,4.51
2023-02-24T13:31:56.448Z,4.42
2023-02-24T13:34:25.807Z,4.46
2023-02-24T13:36:52.043Z,4.46
2023-02-24T13:39:20.755Z,4.31
2023-02-24T13:41:46.990Z,4.43
2023-02-24T13:44:19.351Z,4.39
2023-02-24T13:47:03.978Z,4.36
2023-02-24T13:49:35.573Z,4.23
2023-02-24T13:52:02.670Z,4.15
2023-02-24T13:54:38.292Z,4.16
2023-02-24T13:57:22.322Z,4.16
2023-02-24T13:59:58.347Z,4.24
2023-02-24T14:02:26.969Z,4.23
2023-02-24T14:04:54.102Z,4.33
2023-02-24T14:07:21.561Z,4.34
2023-02-24T14:09:49.694Z,4.43
2023-02-24T14:12:17.186Z,4.45
2023-02-24T14:14:43.535Z,4.39
2023-02-24T14:17:20.392Z,4.50
2023-02-24T14:19:46.617Z,4.58
2023-02-24T14:22:19.476Z,4.62
2023-02-24T14:24:45.702Z,4.59
2023-02-24T14:27:20.084Z,4.59
2023-02-24T14:29:46.286Z,4.60
2023-02-24T14:32:17.314Z,4.65
2023-02-24T14:34:45.399Z,4.67
2023-02-24T14:37:11.610Z,4.60
2023-02-24T14:39:37.812Z,4.61
2023-02-24T14:42:07.120Z,4.58
2023-02-24T14:44:33.355Z,4.52
2023-02-24T14:47:00.104Z,4.51
2023-02-24T14:49:27.010Z,4.54
2023-02-24T14:51:55.176Z,4.54
2023-02-24T14:54:24.404Z,4.47
2023-02-24T14:56:50.642Z,4.41
2023-02-24T14:59:18.126Z,4.43
2023-02-24T15:01:45.727Z,4.50
2023-02-24T15:04:30.574Z,4.49
2023-02-24T15:06:56.779Z,4.54
2023-02-24T15:09:23.351Z,4.54
2023-02-24T15:11:49.817Z,4.56
2023-02-24T15:14:34.238Z,4.56
2023-02-24T15:17:01.565Z,4.53
2023-02-24T15:19:31.579Z,4.51
2023-02-24T15:21:57.778Z,4.53
2023-02-24T15:24:26.943Z,4.50
2023-02-24T15:26:53.896Z,4.58
2023-02-24T15:29:20.947Z,4.62
2023-02-24T15:31:47.616Z,4.63
2023-02-24T15:34:16.671Z,4.66
2023-02-24T15:36:42.887Z,4.57
2023-02-24T15:39:09.232Z,4.57
2023-02-24T15:41:45.180Z,4.51
2023-02-24T15:44:23.793Z,4.53
2023-02-24T15:46:50.250Z,4.55
2023-02-24T15:49:16.490Z,4.60
2023-02-24T15:51:46.149Z,4.61
2023-02-24T15:54:12.849Z,4.64
2023-02-24T15:56:39.070Z,4.67
2023-02-24T15:59:05.331Z,4.64
2023-02-24T16:01:31.611Z,4.67
2023-02-24T16:03:58.065Z,4.65
2023-02-24T16:06:24.301Z,4.62
2023-02-24T16:08:50.560Z,4.62
2023-02-24T16:11:17.217Z,4.59
2023-02-24T16:13:43.603Z,4.61
2023-02-24T16:16:09.857Z,4.59
2023-02-24T16:18:36.107Z,4.58
2023-02-24T16:21:02.436Z,4.62
2023-02-24T16:23:28.717Z,4.58
2023-02-24T16:25:58.923Z,4.60
2023-02-24T16:28:25.126Z,4.55
2023-02-24T16:30:51.438Z,4.62
2023-02-24T16:33:18.073Z,4.59
2023-02-24T16:35:44.337Z,4.58
2023-02-24T16:38:13.974Z,4.59
2023-02-24T16:40:40.197Z,4.58
2023-02-24T16:43:06.411Z,4.57
2023-02-24T16:45:32.654Z,4.56
2023-02-24T16:48:01.251Z,4.59
2023-02-24T16:50:32.519Z,4.59
2023-02-24T16:52:59.097Z,4.57
2023-02-24T16:55:25.429Z,4.53
2023-02-24T16:57:51.631Z,4.57
2023-02-24T17:00:18.038Z,4.59
2023-02-24T17:02:44.356Z,4.52
2023-02-24T17:05:13.162Z,4.47
2023-02-24T17:07:39.398Z,4.45
2023-02-24T17:10:05.921Z,4.43
2023-02-24T17:12:32.147Z,4.43
2023-02-24T17:14:58.365Z,4.47
2023-02-24T17:17:24.585Z,4.45
2023-02-24T17:19:50.802Z,4.50
2023-02-24T17:22:17.039Z,4.45
2023-02-24T17:24:43.274Z,4.47
2023-02-24T17:27:10.658Z,4.47
2023-02-24T17:29:36.872Z,4.49
2023-02-24T17:32:03.241Z,4.52
2023-02-24T17:34:29.561Z,4.53
2023-02-24T17:36:55.813Z,4.58
2023-02-24T17:39:22.012Z,4.56
2023-02-24T17:41:48.199Z,4.55
2023-02-24T17:44:14.391Z,4.58
2023-02-24T17:46:40.626Z,4.66
2023-02-24T17:49:06.977Z,4.64
2023-02-24T17:51:33.182Z,4.65
2023-02-24T17:53:59.385Z,4.64
2023-02-24T17:56:25.607Z,4.68
2023-02-24T17:58:51.808Z,4.69
2023-02-24T18:01:18.009Z,4.72
2023-02-24T18:03:44.213Z,4.71
2023-02-24T18:06:10.930Z,4.72
2023-02-24T18:08:37.366Z,4.78
2023-02-24T18:11:03.916Z,4.76
2023-02-24T18:13:30.126Z,4.73
2023-02-24T18:15:56.420Z,4.73
2023-02-24T18:18:23.049Z,4.76
2023-02-24T18:20:49.251Z,4.83
2023-02-24T18:23:15.459Z,4.77
2023-02-24T18:25:41.657Z,4.77
2023-02-24T18:28:07.862Z,4.75
2023-02-24T18:30:34.137Z,4.77
2023-02-24T18:33:00.600Z,4.83
2023-02-24T18:35:26.981Z,4.86
2023-02-24T18:37:53.186Z,4.81
2023-02-24T18:40:19.455Z,4.85
2023-02-24T18:42:45.663Z,4.83
2023-02-24T18:45:11.873Z,4.81
2023-02-24T18:47:38.074Z,4.77
2023-02-24T18:50:04.439Z,4.73
2023-02-24T18:52:30.635Z,4.68
2023-02-24T18:54:56.848Z,4.65
2023-02-24T18:57:23.053Z,4.70
2023-02-24T18:59:49.534Z,4.66
2023-02-24T19:02:15.781Z,4.74
2023-02-24T19:04:42.006Z,4.78
2023-02-24T19:07:08.227Z,4.75
2023-02-24T19:09:34.504Z,4.76
2023-02-24T19:12:00.711Z,4.80
2023-02-24T19:14:27.087Z,4.83
2023-02-24T19:16:53.316Z,4.84
2023-02-24T19:19:19.536Z,4.59
2023-02-24T19:21:45.879Z,4.39
2023-02-24T19:24:12.098Z,4.22
2023-02-24T19:26:38.303Z,4.16
2023-02-24T19:29:04.616Z,4.12
2023-02-24T19:31:31.090Z,4.01
2023-02-24T19:33:58.308Z,3.98
2023-02-24T19:36:25.045Z,3.96
2023-02-24T19:38:51.565Z,3.94
2023-02-24T19:41:17.804Z,3.96
2023-02-24T19:43:44.024Z,3.93
2023-02-24T19:46:10.976Z,3.94
2023-02-24T19:48:37.216Z,3.97
2023-02-24T19:51:07.805Z,3.90
2023-02-24T19:53:34.005Z,3.90
2023-02-24T19:56:00.259Z,3.90
2023-02-24T19:58:26.471Z,3.87
2023-02-24T20:00:52.744Z,3.98
2023-02-24T20:03:18.986Z,3.95
2023-02-24T20:05:45.191Z,3.91
2023-02-24T20:08:11.391Z,3.88
2023-02-24T20:10:37.634Z,3.87
2023-02-24T20:13:03.980Z,3.83
2023-02-24T20:15:30.188Z,3.88
2023-02-24T20:17:56.385Z,3.85
2023-02-24T20:20:22.589Z,3.90
2023-02-24T20:22:48.783Z,3.88
2023-02-24T20:25:14.992Z,3.81
2023-02-24T20:27:41.214Z,3.84
2023-02-24T20:30:07.710Z,3.76
2023-02-24T20:32:34.028Z,3.71
2023-02-24T20:35:00.451Z,3.70
2023-02-24T20:37:27.081Z,3.66
2023-02-24T20:39:53.290Z,3.67
2023-02-24T20:42:19.495Z,3.68
2023-02-24T20:44:45.715Z,3.64
2023-02-24T20:47:11.936Z,3.62
2023-02-24T20:49:38.152Z,3.61
2023-02-24T20:52:04.360Z,3.56
2023-02-24T20:54:30.559Z,3.43
2023-02-24T20:56:58.490Z,3.44
2023-02-24T20:59:24.688Z,3.39
2023-02-24T21:01:50.983Z,3.41
2023-02-24T21:04:18.132Z,3.39
2023-02-24T21:06:44.350Z,3.41
2023-02-24T21:09:10.572Z,3.37
2023-02-24T21:11:36.783Z,3.40
2023-02-24T21:14:02.991Z,3.40
2023-02-24T21:16:29.214Z,3.35
2023-02-24T21:18:55.427Z,3.34
2023-02-24T21:21:21.639Z,3.35
2023-02-24T21:23:47.878Z,3.31
2023-02-24T21:26:14.170Z,3.29
2023-02-24T21:28:40.493Z,3.30
2023-02-24T21:31:17.552Z,3.31
2023-02-24T21:33:43.885Z,3.32
2023-02-24T21:36:13.605Z,3.25
2023-02-24T21:38:39.922Z,3.23
2023-02-24T21:41:06.740Z,3.21
2023-02-24T21:43:32.951Z,3.23
2023-02-24T21:46:02.422Z,3.26
2023-02-24T21:48:28.653Z,3.22
2023-02-24T21:50:58.648Z,3.22
2023-02-24T21:53:24.845Z,3.26
2023-02-24T21:55:51.059Z,3.26
2023-02-24T21:58:17.276Z,3.23
2023-02-24T22:00:43.484Z,3.18
2023-02-24T22:03:09.710Z,3.21
2023-02-24T22:05:35.917Z,3.23
2023-02-24T22:08:02.138Z,3.19
2023-02-24T22:10:28.344Z,3.17
2023-02-24T22:12:55.550Z,3.20
2023-02-24T22:15:21.742Z,3.18
2023-02-24T22:17:47.942Z,3.20
2023-02-24T22:20:14.249Z,3.16
2023-02-24T22:22:40.867Z,3.16
2023-02-24T22:25:07.307Z,3.20
2023-02-24T22:27:33.527Z,3.17
2023-02-24T22:29:59.732Z,3.15
2023-02-24T22:32:26.032Z,3.14
2023-02-24T22:34:52.344Z,3.15
2023-02-24T22:37:18.599Z,3.08
2023-02-24T22:39:44.812Z,3.07
2023-02-24T22:42:11.045Z,3.09
2023-02-24T22:44:37.319Z,3.10
2023-02-24T22:47:03.639Z,3.14
2023-02-24T22:49:29.837Z,3.14
2023-02-24T22:51:56.043Z,3.15
2023-02-24T22:54:22.243Z,3.16
2023-02-24T22:56:48.445Z,3.15
2023-02-24T22:59:14.638Z,3.14
2023-02-24T23:01:41.753Z,3.12
2023-02-24T23:04:08.649Z,3.12
2023-02-24T23:06:35.000Z,3.14
2023-02-24T23:09:01.784Z,3.08
2023-02-24T23:11:28.853Z,3.07
2023-02-24T23:13:55.215Z,3.04
2023-02-24T23:16:22.573Z,3.04
2023-02-24T23:18:48.981Z,3.04
2023-02-24T23:21:15.173Z,3.05
2023-02-24T23:23:41.380Z,3.04
2023-02-24T23:26:07.581Z,3.05
2023-02-24T23:28:33.787Z,3.05
2023-02-24T23:31:00.032Z,3.04
2023-02-24T23:33:26.271Z,3.06
2023-02-24T23:35:52.470Z,3.05
2023-02-24T23:38:18.691Z,3.02
2023-02-24T23:40:50.187Z,3.04
2023-02-24T23:43:16.751Z,3.11
2023-02-24T23:45:43.003Z,3.08
2023-02-24T23:48:09.260Z,3.10
2023-02-24T23:50:38.798Z,3.12
2023-02-24T23:53:04.998Z,3.15
2023-02-24T23:55:31.211Z,3.20
2023-02-24T23:57:57.421Z,3.23
